Terminal Aerodrome Forecast
Issued by NWS

Home | Current Version | Previous Version | Text Only | Print | Product List | Glossary On
Versions: 1 2 3 4 5 6 7 8 9 10 11 12 13 14 15 16 17
000
FTUS41 KBOX 061735
TAFBAF
TAF
KBAF 061735Z 0618/0718 07009KT P6SM OVC030
     FM062000 09007KT P6SM OVC025
     FM062300 08006KT P6SM -RA OVC015
     FM070400 04006KT P6SM OVC008=

USA.gov is the U.S. government's official web portal to all federal, state and local government web resources and services.